Time;durP1;ratioP1;P1;durP2;ratioP2;P2;SDS_P1;SDS_P2;PMS_P1;PMS_P2;Temp;Humidity;BMP_temperature;BMP_pressure;BME280_temperature;BME280_humidity;BME280_pressure;Samples;Min_cycle;Max_cycle;Signal;HPM_P1;HPM_P2
2024/02/17 00:00:00;;;;;;;48.35;20.58;;;10.30;99.90;;;;;;4888345;29;20032;-63
2024/02/17 00:02:26;;;;;;;37.17;16.70;;;10.30;99.90;;;;;;4895264;29;20056;-62
2024/02/17 00:04:52;;;;;;;43.03;17.42;;;10.30;99.90;;;;;;4900345;29;20138;-62
2024/02/17 00:07:17;;;;;;;46.97;22.40;;;10.30;99.90;;;;;;4892342;29;20036;-62
2024/02/17 00:09:44;;;;;;;39.50;17.15;;;10.30;99.90;;;;;;4893627;29;20024;-62
2024/02/17 00:12:09;;;;;;;40.55;17.00;;;10.30;99.90;;;;;;4895521;29;20032;-62
2024/02/17 00:14:38;;;;;;;47.10;21.15;;;10.30;99.90;;;;;;4894755;29;20084;-62
2024/02/17 00:17:04;;;;;;;40.95;17.83;;;10.20;99.90;;;;;;4891773;29;20037;-61
2024/02/17 00:19:30;;;;;;;45.55;19.90;;;10.20;99.90;;;;;;4896530;29;20064;-62
2024/02/17 00:21:56;;;;;;;34.15;13.93;;;10.20;99.90;;;;;;4887415;29;20390;-62
2024/02/17 00:24:22;;;;;;;48.08;19.45;;;10.20;99.90;;;;;;4896549;29;20080;-62
2024/02/17 00:26:49;;;;;;;43.58;20.08;;;10.10;99.90;;;;;;4892824;29;20870;-62
2024/02/17 00:29:15;;;;;;;42.85;19.30;;;10.10;99.90;;;;;;4888759;29;20100;-62
2024/02/17 00:31:44;;;;;;;36.05;14.65;;;10.00;99.90;;;;;;4899768;29;20036;-63
2024/02/17 00:34:11;;;;;;;44.40;20.05;;;9.90;99.90;;;;;;4891571;29;20033;-62
2024/02/17 00:36:37;;;;;;;46.05;20.17;;;9.90;99.90;;;;;;4888222;29;20029;-63
2024/02/17 00:39:03;;;;;;;47.35;19.92;;;9.80;99.90;;;;;;4884125;29;20080;-63
2024/02/17 00:41:29;;;;;;;43.33;18.67;;;9.80;99.90;;;;;;4886248;29;20387;-63
2024/02/17 00:43:54;;;;;;;42.35;19.55;;;9.80;99.90;;;;;;4868426;29;20124;-63
2024/02/17 00:46:20;;;;;;;46.45;19.75;;;9.80;99.90;;;;;;4888994;29;20116;-63
2024/02/17 00:48:46;;;;;;;46.67;19.27;;;9.80;99.90;;;;;;4891532;29;20096;-63
2024/02/17 00:51:15;;;;;;;48.53;19.77;;;9.80;99.90;;;;;;4884533;29;20040;-62
2024/02/17 00:53:45;;;;;;;49.65;20.52;;;9.90;99.90;;;;;;4889015;29;20028;-63
2024/02/17 00:56:14;;;;;;;47.88;20.08;;;9.90;99.90;;;;;;4871385;29;20459;-61
2024/02/17 00:58:40;;;;;;;47.22;20.35;;;9.90;99.90;;;;;;4882179;29;20040;-61
2024/02/17 01:01:06;;;;;;;45.45;21.13;;;9.90;99.90;;;;;;4888081;29;20028;-61
2024/02/17 01:03:32;;;;;;;50.00;19.80;;;9.80;99.90;;;;;;4883981;29;20500;-61
2024/02/17 01:05:57;;;;;;;45.70;19.73;;;9.80;99.90;;;;;;4887261;29;20029;-62
2024/02/17 01:08:23;;;;;;;48.97;20.88;;;9.80;99.90;;;;;;4885784;29;20460;-63
2024/02/17 01:10:49;;;;;;;46.22;20.08;;;9.80;99.90;;;;;;4871059;29;20024;-62
2024/02/17 01:13:15;;;;;;;44.58;19.70;;;9.80;99.90;;;;;;4884589;29;20029;-62
2024/02/17 01:15:40;;;;;;;46.28;18.45;;;9.80;99.90;;;;;;4886762;29;20119;-63
2024/02/17 01:18:08;;;;;;;44.72;18.98;;;9.70;99.90;;;;;;4886078;29;20092;-61
2024/02/17 01:20:33;;;;;;;46.92;20.77;;;9.70;99.90;;;;;;4884238;29;20053;-62
2024/02/17 01:22:59;;;;;;;45.65;20.08;;;9.70;99.90;;;;;;4885451;29;20116;-62
2024/02/17 01:25:25;;;;;;;44.67;19.48;;;9.70;99.90;;;;;;4884873;29;20033;-62
2024/02/17 01:27:51;;;;;;;45.42;21.02;;;9.80;99.90;;;;;;4886166;29;20060;-62
2024/02/17 01:30:17;;;;;;;47.53;20.63;;;9.70;99.90;;;;;;4890542;29;20032;-62
2024/02/17 01:32:43;;;;;;;50.50;21.10;;;9.70;99.90;;;;;;4888241;29;20032;-62
2024/02/17 01:35:08;;;;;;;47.58;20.63;;;9.70;99.90;;;;;;4890950;29;20029;-62
2024/02/17 01:37:34;;;;;;;49.25;21.60;;;9.70;99.90;;;;;;4887234;29;20029;-62
2024/02/17 01:40:00;;;;;;;47.78;20.13;;;9.60;99.90;;;;;;4873794;29;20546;-61
2024/02/17 01:42:26;;;;;;;49.72;22.23;;;9.70;99.90;;;;;;4887786;29;20028;-63
2024/02/17 01:44:51;;;;;;;52.05;21.92;;;9.60;99.90;;;;;;4889964;29;20029;-62
2024/02/17 01:47:18;;;;;;;42.33;17.35;;;9.70;99.90;;;;;;4888564;29;20079;-62
2024/02/17 01:49:44;;;;;;;52.00;20.58;;;9.70;99.90;;;;;;4894335;29;20036;-62
2024/02/17 01:52:10;;;;;;;59.90;23.58;;;9.70;99.90;;;;;;4889953;29;20587;-63
2024/02/17 01:54:36;;;;;;;45.28;18.65;;;9.60;99.90;;;;;;4889959;29;20067;-62
2024/02/17 01:57:04;;;;;;;45.00;17.77;;;9.60;99.90;;;;;;4890468;29;20033;-62
2024/02/17 01:59:30;;;;;;;54.83;20.48;;;9.60;99.90;;;;;;4889703;29;20493;-62
2024/02/17 02:01:57;;;;;;;62.50;21.25;;;9.60;99.90;;;;;;4889861;29;20020;-63
2024/02/17 02:04:23;;;;;;;43.95;15.32;;;9.60;99.90;;;;;;4870696;29;20039;-63
2024/02/17 02:06:49;;;;;;;56.58;21.10;;;9.60;99.90;;;;;;4888942;29;20040;-62
2024/02/17 02:09:18;;;;;;;58.45;20.63;;;9.50;99.90;;;;;;4888581;29;20057;-63
2024/02/17 02:11:44;;;;;;;51.28;18.70;;;9.50;99.90;;;;;;4888482;29;20476;-63
2024/02/17 02:14:17;;;;;;;56.88;20.70;;;9.50;99.90;;;;;;4896070;29;20029;-63
2024/02/17 02:16:43;;;;;;;50.80;18.73;;;9.50;99.90;;;;;;4897930;29;20080;-63
2024/02/17 02:19:09;;;;;;;49.20;19.52;;;9.50;99.90;;;;;;4898454;29;20048;-63
2024/02/17 02:21:36;;;;;;;47.47;19.48;;;9.40;99.90;;;;;;4879020;29;20503;-63
2024/02/17 02:24:02;;;;;;;51.03;18.75;;;9.40;99.90;;;;;;4898053;29;20073;-63
2024/02/17 02:26:28;;;;;;;39.85;14.15;;;9.40;99.90;;;;;;4894866;29;20028;-63
2024/02/17 02:28:54;;;;;;;42.53;17.48;;;9.40;99.90;;;;;;4897358;29;20044;-63
2024/02/17 02:31:19;;;;;;;52.58;17.65;;;9.40;99.90;;;;;;4896758;29;20084;-62
2024/02/17 02:33:47;;;;;;;44.80;17.77;;;9.40;99.90;;;;;;4895895;29;20457;-63
2024/02/17 02:36:13;;;;;;;41.88;16.17;;;9.30;99.90;;;;;;4897184;29;20029;-63
2024/02/17 02:38:39;;;;;;;50.80;19.10;;;9.30;99.90;;;;;;4895934;29;20072;-63
2024/02/17 02:41:05;;;;;;;41.25;16.08;;;9.30;99.90;;;;;;4896542;29;20360;-63
2024/02/17 02:43:30;;;;;;;44.97;17.13;;;9.30;99.90;;;;;;4896818;29;20036;-63
2024/02/17 02:45:56;;;;;;;46.38;18.38;;;9.30;99.90;;;;;;4892254;29;20035;-63
2024/02/17 02:48:21;;;;;;;46.53;18.58;;;9.30;99.90;;;;;;4890000;29;20041;-63
2024/02/17 02:50:47;;;;;;;45.00;17.30;;;9.30;99.90;;;;;;4889367;29;20377;-63
2024/02/17 02:53:13;;;;;;;46.53;18.25;;;9.20;99.90;;;;;;4886481;29;20033;-63
2024/02/17 02:55:38;;;;;;;44.10;18.20;;;9.20;99.90;;;;;;4886963;29;20041;-63
2024/02/17 02:58:04;;;;;;;58.30;19.48;;;9.20;99.90;;;;;;4889602;29;20125;-63
2024/02/17 03:00:29;;;;;;;40.30;17.58;;;9.20;99.90;;;;;;4889084;29;20051;-62
2024/02/17 03:02:55;;;;;;;40.33;16.52;;;9.20;99.90;;;;;;4887227;29;20040;-62
2024/02/17 03:05:21;;;;;;;49.35;19.98;;;9.20;99.90;;;;;;4888544;29;20043;-62
2024/02/17 03:07:47;;;;;;;52.58;20.50;;;9.20;99.90;;;;;;4887399;29;20024;-62
2024/02/17 03:10:12;;;;;;;52.30;19.13;;;9.20;99.90;;;;;;4887803;29;20029;-62
2024/02/17 03:12:38;;;;;;;47.97;18.42;;;9.10;99.90;;;;;;4887730;29;20033;-61
2024/02/17 03:15:04;;;;;;;50.00;18.85;;;9.10;99.90;;;;;;4886480;29;20078;-62
2024/02/17 03:17:30;;;;;;;51.22;20.85;;;9.10;99.90;;;;;;4888977;29;20039;-62
2024/02/17 03:19:56;;;;;;;47.28;20.30;;;9.10;99.90;;;;;;4887299;29;20083;-62
2024/02/17 03:22:22;;;;;;;48.45;18.13;;;9.10;99.90;;;;;;4883919;29;20096;-62
2024/02/17 03:24:48;;;;;;;40.78;17.30;;;9.10;99.90;;;;;;4871532;29;20563;-62
2024/02/17 03:27:13;;;;;;;44.20;18.33;;;9.10;99.90;;;;;;4887256;29;20029;-62
2024/02/17 03:29:39;;;;;;;47.35;17.98;;;9.10;99.90;;;;;;4871803;29;20396;-62
2024/02/17 03:32:05;;;;;;;49.65;18.92;;;9.10;99.90;;;;;;4887936;29;20033;-62
2024/02/17 03:34:34;;;;;;;44.67;17.88;;;9.10;99.90;;;;;;4871635;29;20037;-61
2024/02/17 03:37:00;;;;;;;47.78;18.17;;;9.10;99.90;;;;;;4888625;29;20051;-61
2024/02/17 03:39:25;;;;;;;47.50;18.10;;;9.10;99.90;;;;;;4885372;29;20025;-62
2024/02/17 03:41:51;;;;;;;45.65;17.52;;;9.00;99.90;;;;;;4888812;29;20122;-62
2024/02/17 03:44:18;;;;;;;47.67;18.35;;;9.10;99.90;;;;;;4891295;29;20048;-62
2024/02/17 03:46:43;;;;;;;51.17;18.48;;;9.10;99.90;;;;;;4888343;29;20031;-62
2024/02/17 03:49:09;;;;;;;45.25;16.58;;;9.10;99.90;;;;;;4889024;29;20119;-62
2024/02/17 03:51:36;;;;;;;37.95;16.33;;;9.10;99.90;;;;;;4884844;29;20112;-62
2024/02/17 03:54:02;;;;;;;48.33;17.27;;;9.10;99.90;;;;;;4887505;29;20032;-62
2024/02/17 03:56:28;;;;;;;48.05;18.20;;;9.10;99.90;;;;;;4885441;29;20032;-62
2024/02/17 03:58:54;;;;;;;45.45;16.63;;;9.10;99.90;;;;;;4892773;29;20029;-62
2024/02/17 04:01:20;;;;;;;44.80;16.55;;;9.10;99.90;;;;;;4884726;29;19919;-62
2024/02/17 04:03:46;;;;;;;41.15;17.10;;;9.10;99.90;;;;;;4888923;29;20031;-62
2024/02/17 04:06:12;;;;;;;48.00;19.02;;;9.10;99.90;;;;;;4887495;29;20548;-62
2024/02/17 04:08:38;;;;;;;48.60;18.77;;;9.10;99.90;;;;;;4889800;29;20029;-62
2024/02/17 04:11:04;;;;;;;48.60;17.80;;;9.10;99.90;;;;;;4889139;29;20379;-62
2024/02/17 04:13:29;;;;;;;38.67;16.00;;;9.10;99.90;;;;;;4887087;29;20368;-63
2024/02/17 04:15:55;;;;;;;35.85;13.32;;;9.10;99.90;;;;;;4888113;29;20037;-63
2024/02/17 04:18:21;;;;;;;49.22;18.52;;;9.10;99.90;;;;;;4891397;29;20040;-63
2024/02/17 04:20:47;;;;;;;50.47;20.08;;;9.10;99.90;;;;;;4885251;29;20499;-63
2024/02/17 04:23:13;;;;;;;43.97;17.20;;;9.10;99.90;;;;;;4886325;29;20095;-63
2024/02/17 04:25:42;;;;;;;48.67;19.77;;;9.10;99.90;;;;;;4885294;29;20137;-63
2024/02/17 04:28:08;;;;;;;55.25;21.58;;;9.00;99.90;;;;;;4887506;29;20488;-63
2024/02/17 04:30:33;;;;;;;52.35;19.92;;;9.00;99.90;;;;;;4889506;29;20140;-63
2024/02/17 04:32:59;;;;;;;49.67;20.20;;;9.00;99.90;;;;;;4886672;29;20033;-64
2024/02/17 04:35:25;;;;;;;46.38;19.35;;;9.00;99.90;;;;;;4882803;29;20069;-63
2024/02/17 04:37:53;;;;;;;51.58;20.08;;;9.00;99.90;;;;;;4888081;29;20540;-63
2024/02/17 04:40:18;;;;;;;50.10;19.30;;;9.00;99.90;;;;;;4884358;29;20033;-63
2024/02/17 04:42:44;;;;;;;50.05;20.35;;;9.10;99.90;;;;;;4870939;29;20032;-63
2024/02/17 04:45:10;;;;;;;44.45;19.73;;;9.00;99.90;;;;;;4885656;29;20111;-63
2024/02/17 04:47:36;;;;;;;42.97;17.67;;;9.00;99.90;;;;;;4890829;29;20025;-63
2024/02/17 04:50:02;;;;;;;52.17;20.67;;;9.00;99.90;;;;;;4889520;29;20045;-63
2024/02/17 04:52:28;;;;;;;50.83;21.17;;;9.00;99.90;;;;;;4868268;29;20024;-63
2024/02/17 04:54:53;;;;;;;53.08;19.33;;;9.00;99.90;;;;;;4885050;29;20048;-63
2024/02/17 04:57:19;;;;;;;46.03;17.20;;;9.00;99.90;;;;;;4887058;29;20508;-63
2024/02/17 04:59:44;;;;;;;47.30;20.10;;;9.00;99.90;;;;;;4884734;29;20037;-63
2024/02/17 05:02:13;;;;;;;53.80;21.58;;;9.00;99.90;;;;;;4887214;29;20029;-63
2024/02/17 05:04:39;;;;;;;58.63;22.63;;;9.00;99.90;;;;;;4869707;29;20024;-63
2024/02/17 05:07:05;;;;;;;49.50;21.50;;;9.00;99.90;;;;;;4888323;29;20864;-63
2024/02/17 05:09:32;;;;;;;44.60;18.92;;;9.00;99.90;;;;;;4888526;29;20025;-64
2024/02/17 05:11:58;;;;;;;49.17;22.00;;;9.00;99.90;;;;;;4889610;29;20093;-63
2024/02/17 05:14:24;;;;;;;50.53;21.52;;;9.00;99.90;;;;;;4873408;29;20033;-63
2024/02/17 05:16:50;;;;;;;54.45;22.10;;;9.00;99.90;;;;;;4888138;29;20029;-63
2024/02/17 05:19:16;;;;;;;55.80;22.63;;;9.10;99.90;;;;;;4895830;29;20390;-63
2024/02/17 05:21:42;;;;;;;58.80;23.75;;;9.10;99.90;;;;;;4885953;29;20025;-63
2024/02/17 05:24:09;;;;;;;53.50;23.63;;;9.00;99.90;;;;;;4890786;29;20028;-63
2024/02/17 05:26:35;;;;;;;56.75;23.73;;;9.00;99.90;;;;;;4872867;29;20029;-63
2024/02/17 05:29:02;;;;;;;55.05;24.63;;;9.00;99.90;;;;;;4889425;29;20135;-63
2024/02/17 05:31:28;;;;;;;52.35;22.95;;;9.10;99.90;;;;;;4894644;29;20052;-63
2024/02/17 05:33:55;;;;;;;52.40;23.17;;;9.10;99.90;;;;;;4891493;29;20480;-63
2024/02/17 05:36:21;;;;;;;52.90;23.10;;;9.00;99.90;;;;;;4891166;29;20032;-63
2024/02/17 05:38:46;;;;;;;56.83;23.70;;;9.00;99.90;;;;;;4887759;29;20112;-63
2024/02/17 05:41:12;;;;;;;51.67;24.25;;;9.00;99.90;;;;;;4893006;29;20029;-63
2024/02/17 05:43:38;;;;;;;51.47;23.33;;;9.00;99.90;;;;;;4888906;29;20042;-63
2024/02/17 05:46:04;;;;;;;55.30;23.55;;;9.00;99.90;;;;;;4888683;29;20092;-63
2024/02/17 05:48:29;;;;;;;59.72;24.10;;;9.00;99.90;;;;;;4896242;29;20491;-62
2024/02/17 05:50:55;;;;;;;59.60;24.35;;;9.00;99.90;;;;;;4887440;29;20045;-62
2024/02/17 05:53:20;;;;;;;55.63;24.02;;;9.00;99.90;;;;;;4886023;29;20425;-62
2024/02/17 05:55:46;;;;;;;57.65;23.77;;;9.00;99.90;;;;;;4873763;29;20037;-62
2024/02/17 05:58:12;;;;;;;56.08;23.90;;;9.10;99.90;;;;;;4890558;29;20017;-63
2024/02/17 06:00:39;;;;;;;58.75;24.73;;;9.00;99.90;;;;;;4887550;29;20366;-64
2024/02/17 06:03:04;;;;;;;43.05;19.25;;;9.00;99.90;;;;;;4889885;29;20132;-63
2024/02/17 06:05:32;;;;;;;56.50;23.90;;;9.10;99.90;;;;;;4871082;29;20132;-63
2024/02/17 06:07:58;;;;;;;55.63;24.38;;;9.10;99.90;;;;;;4872030;29;20031;-63
2024/02/17 06:10:24;;;;;;;55.22;24.65;;;9.10;99.90;;;;;;4888752;29;20048;-62
2024/02/17 06:12:50;;;;;;;57.60;23.20;;;9.10;99.90;;;;;;4888074;29;20377;-62
2024/02/17 06:15:15;;;;;;;59.13;25.15;;;9.00;99.90;;;;;;4888958;29;20111;-63
2024/02/17 06:17:46;;;;;;;58.15;24.48;;;9.10;99.90;;;;;;4890455;29;20031;-63
2024/02/17 06:22:56;;;;;;;62.53;25.75;;;9.10;99.90;;;;;;4883772;29;20085;-63
2024/02/17 06:25:24;;;;;;;56.72;24.63;;;9.00;99.90;;;;;;4883984;29;20511;-63
2024/02/17 06:27:50;;;;;;;55.30;24.02;;;9.00;99.90;;;;;;4883723;29;20056;-63
2024/02/17 06:30:16;;;;;;;56.78;24.83;;;9.10;99.90;;;;;;4879248;29;20559;-63
2024/02/17 06:32:42;;;;;;;62.28;27.13;;;9.10;99.90;;;;;;4895785;29;20020;-63
2024/02/17 06:35:09;;;;;;;57.55;22.27;;;9.10;99.90;;;;;;4884683;29;20092;-63
2024/02/17 06:37:35;;;;;;;56.83;26.25;;;9.10;99.90;;;;;;4869732;29;20029;-63
2024/02/17 06:40:01;;;;;;;59.80;25.50;;;9.10;99.90;;;;;;4890256;29;20445;-63
2024/02/17 06:42:27;;;;;;;59.75;25.45;;;9.10;99.90;;;;;;4888065;29;20029;-62
2024/02/17 06:44:52;;;;;;;65.20;25.77;;;9.10;99.90;;;;;;4888236;29;20029;-61
2024/02/17 06:47:19;;;;;;;59.40;24.67;;;9.20;99.90;;;;;;4890061;29;20461;-61
2024/02/17 06:49:45;;;;;;;60.33;22.65;;;9.20;99.90;;;;;;4890874;29;20075;-62
2024/02/17 06:52:11;;;;;;;52.53;22.23;;;9.20;99.90;;;;;;4887946;29;20048;-62
2024/02/17 06:54:37;;;;;;;61.90;26.02;;;9.20;99.90;;;;;;4868893;29;20128;-62
2024/02/17 06:57:03;;;;;;;61.10;27.25;;;9.20;99.90;;;;;;4889100;29;20028;-62
2024/02/17 06:59:29;;;;;;;58.40;25.33;;;9.20;99.90;;;;;;4886263;29;20041;-63
2024/02/17 07:01:56;;;;;;;49.47;19.35;;;9.30;99.90;;;;;;4887870;29;20435;-63
2024/02/17 07:04:21;;;;;;;55.70;23.63;;;9.20;99.90;;;;;;4886519;29;20037;-62
2024/02/17 07:06:47;;;;;;;61.40;25.58;;;9.30;99.90;;;;;;4887541;29;20032;-62
2024/02/17 07:09:16;;;;;;;65.53;25.42;;;9.20;99.90;;;;;;4888440;29;20025;-63
2024/02/17 07:11:42;;;;;;;59.45;25.55;;;9.30;99.90;;;;;;4885986;29;20029;-62
2024/02/17 07:14:08;;;;;;;57.63;24.75;;;9.30;99.90;;;;;;4889336;29;20404;-63
2024/02/17 07:16:33;;;;;;;59.63;24.73;;;9.30;99.90;;;;;;4885357;29;20040;-63
2024/02/17 07:18:59;;;;;;;55.55;22.85;;;9.30;99.90;;;;;;4891628;29;20144;-63
2024/02/17 07:21:25;;;;;;;60.03;24.80;;;9.30;99.90;;;;;;4867871;29;20840;-64
2024/02/17 07:23:51;;;;;;;56.75;25.27;;;9.30;99.90;;;;;;4887416;29;20117;-63
2024/02/17 07:26:17;;;;;;;63.95;26.00;;;9.40;99.90;;;;;;4887752;29;20103;-63
2024/02/17 07:28:43;;;;;;;57.60;25.63;;;9.30;99.90;;;;;;4889975;29;20032;-63
2024/02/17 07:31:13;;;;;;;58.55;26.20;;;9.30;99.90;;;;;;4889921;29;20036;-63
2024/02/17 07:33:40;;;;;;;64.25;25.67;;;9.30;99.90;;;;;;4885290;29;20029;-63
2024/02/17 07:36:06;;;;;;;60.63;26.50;;;9.40;99.90;;;;;;4888786;29;20036;-63
2024/02/17 07:38:31;;;;;;;68.95;25.52;;;9.40;99.90;;;;;;4884950;29;20032;-63
2024/02/17 07:40:57;;;;;;;49.65;22.02;;;9.30;99.90;;;;;;4888485;29;20080;-63
2024/02/17 07:43:23;;;;;;;57.17;23.70;;;9.40;99.90;;;;;;4876984;29;20025;-62
2024/02/17 07:45:48;;;;;;;48.88;21.17;;;9.40;99.90;;;;;;4886976;29;20060;-63
2024/02/17 07:48:15;;;;;;;56.20;25.65;;;9.40;99.90;;;;;;4890578;29;20499;-62
2024/02/17 07:50:42;;;;;;;57.45;23.98;;;9.50;99.90;;;;;;4868405;29;20045;-62
2024/02/17 07:53:08;;;;;;;58.50;25.95;;;9.50;99.90;;;;;;4886744;29;20031;-63
2024/02/17 07:55:33;;;;;;;56.80;22.48;;;9.50;99.90;;;;;;4884677;29;20037;-62
2024/02/17 07:57:59;;;;;;;62.63;25.75;;;9.50;99.90;;;;;;4886975;29;20092;-63
2024/02/17 08:00:25;;;;;;;60.22;26.38;;;9.50;99.90;;;;;;4885541;29;20092;-63
2024/02/17 08:02:51;;;;;;;58.88;24.95;;;9.50;99.90;;;;;;4884258;29;20025;-63
2024/02/17 08:05:17;;;;;;;55.90;24.08;;;9.50;99.90;;;;;;4884569;29;20025;-63
2024/02/17 08:07:45;;;;;;;52.60;25.08;;;9.60;99.90;;;;;;4886882;29;20104;-63
2024/02/17 08:10:11;;;;;;;57.35;25.27;;;9.60;99.90;;;;;;4876858;29;20032;-63
2024/02/17 08:12:37;;;;;;;51.42;23.83;;;9.70;99.90;;;;;;4887548;29;20025;-63
2024/02/17 08:15:06;;;;;;;54.22;23.48;;;9.70;99.90;;;;;;4886162;29;20032;-63
2024/02/17 08:17:34;;;;;;;58.58;24.05;;;9.80;99.90;;;;;;4886152;29;20033;-63
2024/02/17 08:20:00;;;;;;;52.72;20.17;;;9.80;99.90;;;;;;4881339;29;20492;-63
2024/02/17 08:22:26;;;;;;;46.78;18.42;;;9.90;99.90;;;;;;4882142;29;20052;-62
2024/02/17 08:24:52;;;;;;;48.85;22.45;;;9.90;99.90;;;;;;4873605;29;20377;-63
2024/02/17 08:27:17;;;;;;;44.28;18.50;;;9.90;99.90;;;;;;4884507;29;20033;-62
2024/02/17 08:29:43;;;;;;;56.55;24.00;;;9.90;99.90;;;;;;4890440;29;20084;-63
2024/02/17 08:32:09;;;;;;;56.97;24.90;;;9.90;99.90;;;;;;4886078;29;20107;-62
2024/02/17 08:34:34;;;;;;;59.50;24.33;;;9.90;99.90;;;;;;4882623;29;20033;-63
2024/02/17 08:37:00;;;;;;;57.03;24.20;;;9.90;99.90;;;;;;4888033;29;20087;-62
2024/02/17 08:39:25;;;;;;;45.63;18.77;;;10.00;99.90;;;;;;4882208;29;20512;-62
2024/02/17 08:41:53;;;;;;;53.22;22.85;;;10.00;99.90;;;;;;4887445;29;20028;-62
2024/02/17 08:44:18;;;;;;;51.38;22.10;;;10.00;99.90;;;;;;4885718;29;20480;-62
2024/02/17 08:46:44;;;;;;;55.92;23.85;;;10.00;99.90;;;;;;4885729;29;20168;-62
2024/02/17 08:49:10;;;;;;;51.42;20.27;;;10.00;99.90;;;;;;4889476;29;20064;-62
2024/02/17 08:51:39;;;;;;;51.55;23.15;;;10.00;99.90;;;;;;4868607;29;20040;-62
2024/02/17 08:54:04;;;;;;;59.60;25.10;;;10.10;99.90;;;;;;4885472;29;20033;-63
2024/02/17 08:56:30;;;;;;;58.03;25.75;;;10.10;99.90;;;;;;4887324;29;20025;-63
2024/02/17 08:58:56;;;;;;;58.80;24.38;;;10.10;99.90;;;;;;4884821;29;20022;-63
2024/02/17 09:01:22;;;;;;;54.45;20.75;;;10.10;99.90;;;;;;4884531;29;20029;-63
2024/02/17 09:03:48;;;;;;;57.20;22.83;;;10.10;99.90;;;;;;4887125;29;20033;-63
2024/02/17 09:06:14;;;;;;;63.15;23.58;;;10.00;99.90;;;;;;4886038;29;20108;-63
2024/02/17 09:08:40;;;;;;;56.63;24.98;;;10.10;99.90;;;;;;4885775;29;20465;-63
2024/02/17 09:11:06;;;;;;;56.60;25.58;;;10.00;99.90;;;;;;4886394;29;20116;-63
2024/02/17 09:13:32;;;;;;;57.00;24.65;;;10.20;99.90;;;;;;4886738;29;20103;-63
2024/02/17 09:15:57;;;;;;;52.63;24.65;;;10.20;99.90;;;;;;4881594;29;20029;-63
2024/02/17 09:18:23;;;;;;;58.25;26.02;;;10.20;99.90;;;;;;4887357;29;20048;-64
2024/02/17 09:20:50;;;;;;;54.15;23.08;;;10.40;99.90;;;;;;4890516;29;20040;-63
2024/02/17 09:23:15;;;;;;;57.75;23.88;;;10.50;99.90;;;;;;4886232;29;20032;-63
2024/02/17 09:25:42;;;;;;;54.65;22.58;;;10.70;99.90;;;;;;4884832;29;20032;-64
2024/02/17 09:28:07;;;;;;;50.95;22.88;;;10.70;99.90;;;;;;4885544;29;20431;-63
2024/02/17 09:30:34;;;;;;;52.75;19.23;;;10.80;99.90;;;;;;4886617;29;20117;-63
2024/02/17 09:33:01;;;;;;;59.58;23.73;;;10.80;99.90;;;;;;4887489;29;20479;-63
2024/02/17 09:35:27;;;;;;;57.00;23.55;;;10.70;99.90;;;;;;4886823;29;20025;-62
2024/02/17 09:37:53;;;;;;;63.13;24.35;;;10.60;99.90;;;;;;4870761;29;20106;-62
2024/02/17 09:40:20;;;;;;;65.05;24.75;;;10.60;99.90;;;;;;4884911;29;20384;-62
2024/02/17 09:42:47;;;;;;;50.28;20.05;;;10.60;99.90;;;;;;4886154;29;20025;-62
2024/02/17 09:45:12;;;;;;;51.90;18.77;;;10.70;99.90;;;;;;4883543;29;20030;-62
2024/02/17 09:47:44;;;;;;;59.28;23.45;;;10.60;99.90;;;;;;4885536;29;20029;-62
2024/02/17 09:50:11;;;;;;;65.43;24.65;;;10.50;99.90;;;;;;4887113;29;20516;-62
2024/02/17 09:52:37;;;;;;;52.80;20.30;;;10.40;99.90;;;;;;4886964;29;20421;-62
2024/02/17 09:55:04;;;;;;;69.90;24.80;;;10.40;99.90;;;;;;4889556;29;20056;-63
2024/02/17 09:57:30;;;;;;;67.07;23.75;;;10.40;99.90;;;;;;4869966;29;20120;-64
2024/02/17 09:59:55;;;;;;;56.15;20.70;;;10.40;99.90;;;;;;4887860;29;20533;-64
2024/02/17 10:02:22;;;;;;;65.82;25.83;;;10.50;99.90;;;;;;4890315;29;20035;-61
2024/02/17 10:04:55;;;;;;;59.38;25.13;;;10.50;99.90;;;;;;4887352;29;20089;-61
2024/02/17 10:07:21;;;;;;;62.70;25.15;;;10.40;99.90;;;;;;4887022;29;20052;-61
2024/02/17 10:09:47;;;;;;;60.40;24.05;;;10.40;99.90;;;;;;4890260;29;20028;-61
2024/02/17 10:12:13;;;;;;;63.42;23.58;;;10.30;99.90;;;;;;4886316;29;20029;-61
2024/02/17 10:14:43;;;;;;;62.95;24.77;;;10.30;99.90;;;;;;4888173;29;20071;-61
2024/02/17 10:17:09;;;;;;;75.07;27.60;;;10.30;99.90;;;;;;4891022;29;20024;-61
2024/02/17 10:19:35;;;;;;;67.78;28.35;;;10.30;99.90;;;;;;4891762;29;20139;-62
2024/02/17 10:22:01;;;;;;;63.15;25.70;;;10.40;99.90;;;;;;4886864;29;20104;-61
2024/02/17 10:24:26;;;;;;;58.05;24.33;;;10.50;99.90;;;;;;4889271;29;20024;-61
2024/02/17 10:26:53;;;;;;;52.47;21.00;;;10.40;99.90;;;;;;4886790;29;20160;-62
2024/02/17 10:29:19;;;;;;;64.72;25.45;;;10.50;99.90;;;;;;4889897;29;20108;-61
2024/02/17 10:31:48;;;;;;;60.78;26.88;;;10.40;99.90;;;;;;4889866;29;20119;-61
2024/02/17 10:34:14;;;;;;;63.60;24.85;;;10.50;99.90;;;;;;4886782;29;20036;-61
2024/02/17 10:36:40;;;;;;;74.80;28.40;;;10.50;99.90;;;;;;4887961;29;20036;-62
2024/02/17 10:39:07;;;;;;;59.67;26.63;;;10.50;99.90;;;;;;4890060;29;20033;-63
2024/02/17 10:41:34;;;;;;;72.00;26.17;;;10.60;99.90;;;;;;4870798;29;20056;-61
2024/02/17 10:44:01;;;;;;;66.22;28.55;;;10.60;99.90;;;;;;4887540;29;20017;-63
2024/02/17 10:46:27;;;;;;;64.88;28.02;;;10.60;99.90;;;;;;4888549;29;20124;-63
2024/02/17 10:49:14;;;;;;;64.20;27.55;;;10.70;99.90;;;;;;4893219;29;20045;-63
2024/02/17 10:51:57;;;;;;;61.10;25.88;;;10.70;99.90;;;;;;4885272;29;20052;-63
2024/02/17 10:54:54;;;;;;;63.17;25.77;;;10.90;99.90;;;;;;4884120;29;20795;-63
2024/02/17 10:57:22;;;;;;;66.43;24.60;;;11.10;99.90;;;;;;4882342;29;20073;-63
2024/02/17 10:59:52;;;;;;;69.25;26.73;;;11.10;99.90;;;;;;4886410;29;20033;-63
2024/02/17 11:02:23;;;;;;;70.35;27.38;;;11.20;99.90;;;;;;4885595;29;20075;-63
2024/02/17 11:04:49;;;;;;;56.50;23.05;;;11.20;99.90;;;;;;4887647;29;20029;-64
2024/02/17 11:07:16;;;;;;;65.47;26.50;;;11.20;99.90;;;;;;4869258;29;20029;-64
2024/02/17 11:09:45;;;;;;;57.80;20.40;;;11.10;99.90;;;;;;4886265;29;20040;-64
2024/02/17 11:12:35;;;;;;;67.15;27.52;;;11.20;99.90;;;;;;4889297;29;20349;-64
2024/02/17 11:15:08;;;;;;;69.47;26.77;;;11.20;99.90;;;;;;4885361;29;20047;-64
2024/02/17 11:17:40;;;;;;;60.10;27.20;;;11.30;99.90;;;;;;4887815;29;20488;-64
2024/02/17 11:20:15;;;;;;;64.25;27.45;;;11.20;99.90;;;;;;4889326;29;20055;-64
2024/02/17 11:22:44;;;;;;;73.72;30.88;;;11.10;99.90;;;;;;4882436;29;20029;-64
2024/02/17 11:25:11;;;;;;;59.25;24.67;;;11.20;99.90;;;;;;4886264;29;20024;-64
2024/02/17 11:27:41;;;;;;;47.83;19.85;;;11.20;99.90;;;;;;4887761;29;20479;-64
2024/02/17 11:30:08;;;;;;;68.40;26.33;;;11.20;99.90;;;;;;4891334;29;20392;-64
2024/02/17 11:32:37;;;;;;;66.25;25.15;;;11.20;99.90;;;;;;4871634;29;20033;-64
2024/02/17 11:35:07;;;;;;;62.72;27.13;;;11.30;99.90;;;;;;4886752;29;20051;-64
2024/02/17 11:37:35;;;;;;;63.75;25.05;;;11.20;99.90;;;;;;4887397;29;20413;-64
2024/02/17 11:40:01;;;;;;;55.33;20.67;;;11.20;99.90;;;;;;4887683;29;20472;-64
2024/02/17 11:42:27;;;;;;;61.67;25.17;;;11.10;99.90;;;;;;4886466;29;20017;-63
2024/02/17 11:44:54;;;;;;;49.28;19.65;;;11.00;99.90;;;;;;4886511;29;20025;-63
2024/02/17 11:47:20;;;;;;;68.00;26.92;;;10.90;99.90;;;;;;4888265;29;20034;-63
2024/02/17 11:49:46;;;;;;;57.17;25.67;;;11.00;99.90;;;;;;4889929;29;20048;-64
2024/02/17 11:52:12;;;;;;;49.78;20.73;;;11.10;99.90;;;;;;4869006;29;20117;-62
2024/02/17 11:54:39;;;;;;;58.30;24.73;;;11.20;99.90;;;;;;4887493;29;20074;-63
2024/02/17 11:57:06;;;;;;;55.63;24.73;;;11.30;99.90;;;;;;4873228;29;20040;-64
2024/02/17 11:59:34;;;;;;;59.08;25.55;;;11.40;99.90;;;;;;4891135;29;20035;-63
2024/02/17 12:02:00;;;;;;;57.50;24.38;;;11.40;99.90;;;;;;4892148;29;20032;-62
2024/02/17 12:04:26;;;;;;;56.22;22.45;;;11.50;99.90;;;;;;4895109;29;20033;-66
2024/02/17 12:06:52;;;;;;;50.60;20.10;;;11.50;99.90;;;;;;4893852;29;20511;-64
2024/02/17 12:09:17;;;;;;;58.33;24.38;;;11.50;99.90;;;;;;4896739;29;20570;-65
2024/02/17 12:11:43;;;;;;;61.78;24.80;;;11.40;99.90;;;;;;4889010;29;20051;-64
2024/02/17 12:14:09;;;;;;;55.58;23.73;;;11.40;99.90;;;;;;4892288;29;20508;-62
2024/02/17 12:16:36;;;;;;;53.63;24.58;;;11.30;99.90;;;;;;4887394;29;20025;-63
2024/02/17 12:19:09;;;;;;;56.40;22.33;;;11.30;99.90;;;;;;4889224;29;20139;-63
2024/02/17 12:21:37;;;;;;;52.45;21.08;;;11.30;99.90;;;;;;4885892;29;20158;-63
2024/02/17 12:24:03;;;;;;;56.25;24.67;;;11.20;99.90;;;;;;4887990;29;20037;-63
2024/02/17 12:26:31;;;;;;;59.97;24.98;;;11.20;99.90;;;;;;4889953;29;20044;-63
2024/02/17 12:29:02;;;;;;;52.65;23.42;;;11.30;99.90;;;;;;4893837;29;20024;-63
2024/02/17 12:31:29;;;;;;;56.85;22.63;;;11.50;99.90;;;;;;4889623;29;20477;-64